sensor_id;sensor_type;location;lat;lon;timestamp;temperature;humidity
7317;DHT22;3699;51.462;6.696;2022-10-03T00:01:06;10.20;99.90
7317;DHT22;3699;51.462;6.696;2022-10-03T00:03:42;10.10;99.90
7317;DHT22;3699;51.462;6.696;2022-10-03T00:06:13;10.10;99.90
7317;DHT22;3699;51.462;6.696;2022-10-03T00:08:56;10.10;99.90
7317;DHT22;3699;51.462;6.696;2022-10-03T00:11:31;10.10;99.90
7317;DHT22;3699;51.462;6.696;2022-10-03T00:14:04;10.10;99.90
7317;DHT22;3699;51.462;6.696;2022-10-03T00:16:42;10.10;99.90
7317;DHT22;3699;51.462;6.696;2022-10-03T00:19:19;10.10;99.90
7317;DHT22;3699;51.462;6.696;2022-10-03T00:21:56;10.20;99.90
7317;DHT22;3699;51.462;6.696;2022-10-03T00:24:44;10.20;99.90
7317;DHT22;3699;51.462;6.696;2022-10-03T00:27:17;10.20;99.90
7317;DHT22;3699;51.462;6.696;2022-10-03T00:30:03;10.20;99.90
7317;DHT22;3699;51.462;6.696;2022-10-03T00:32:40;10.30;99.90
7317;DHT22;3699;51.462;6.696;2022-10-03T00:35:20;10.20;99.90
7317;DHT22;3699;51.462;6.696;2022-10-03T00:38:04;10.40;99.90
7317;DHT22;3699;51.462;6.696;2022-10-03T00:40:51;10.30;99.90
7317;DHT22;3699;51.462;6.696;2022-10-03T00:46:44;10.30;99.90
7317;DHT22;3699;51.462;6.696;2022-10-03T00:49:46;10.20;99.90
7317;DHT22;3699;51.462;6.696;2022-10-03T00:52:34;10.20;99.90
7317;DHT22;3699;51.462;6.696;2022-10-03T00:55:13;10.20;99.90
7317;DHT22;3699;51.462;6.696;2022-10-03T00:57:58;10.10;99.90
7317;DHT22;3699;51.462;6.696;2022-10-03T01:00:27;10.10;99.90
7317;DHT22;3699;51.462;6.696;2022-10-03T01:03:14;10.10;99.90
7317;DHT22;3699;51.462;6.696;2022-10-03T01:05:51;10.10;99.90
7317;DHT22;3699;51.462;6.696;2022-10-03T01:08:39;10.00;99.90
7317;DHT22;3699;51.462;6.696;2022-10-03T01:11:16;10.00;99.90
7317;DHT22;3699;51.462;6.696;2022-10-03T01:13:59;10.00;99.90
7317;DHT22;3699;51.462;6.696;2022-10-03T01:16:33;10.00;99.90
7317;DHT22;3699;51.462;6.696;2022-10-03T01:19:25;10.00;99.90
7317;DHT22;3699;51.462;6.696;2022-10-03T01:22:03;10.00;99.90
7317;DHT22;3699;51.462;6.696;2022-10-03T01:24:51;10.00;99.90
7317;DHT22;3699;51.462;6.696;2022-10-03T01:27:26;9.90;99.90
7317;DHT22;3699;51.462;6.696;2022-10-03T01:30:00;9.90;99.90
7317;DHT22;3699;51.462;6.696;2022-10-03T01:32:49;9.90;99.90
7317;DHT22;3699;51.462;6.696;2022-10-03T01:35:28;9.90;99.90
7317;DHT22;3699;51.462;6.696;2022-10-03T01:38:02;9.80;99.90
7317;DHT22;3699;51.462;6.696;2022-10-03T01:40:34;9.90;99.90
7317;DHT22;3699;51.462;6.696;2022-10-03T01:43:11;9.90;99.90
7317;DHT22;3699;51.462;6.696;2022-10-03T01:45:47;9.90;99.90
7317;DHT22;3699;51.462;6.696;2022-10-03T01:48:21;9.80;99.90
7317;DHT22;3699;51.462;6.696;2022-10-03T01:50:59;9.80;99.90
7317;DHT22;3699;51.462;6.696;2022-10-03T01:53:34;9.80;99.90
7317;DHT22;3699;51.462;6.696;2022-10-03T01:56:09;9.70;99.90
7317;DHT22;3699;51.462;6.696;2022-10-03T01:58:46;9.70;99.90
7317;DHT22;3699;51.462;6.696;2022-10-03T02:01:22;9.70;99.90
7317;DHT22;3699;51.462;6.696;2022-10-03T02:03:56;9.60;99.90
7317;DHT22;3699;51.462;6.696;2022-10-03T02:06:34;9.60;99.90
7317;DHT22;3699;51.462;6.696;2022-10-03T02:09:06;9.60;99.90
7317;DHT22;3699;51.462;6.696;2022-10-03T02:11:36;9.60;99.90
7317;DHT22;3699;51.462;6.696;2022-10-03T02:14:16;9.60;99.90
7317;DHT22;3699;51.462;6.696;2022-10-03T02:16:54;9.60;99.90
7317;DHT22;3699;51.462;6.696;2022-10-03T02:19:28;9.60;99.90
7317;DHT22;3699;51.462;6.696;2022-10-03T02:21:57;9.70;99.90
7317;DHT22;3699;51.462;6.696;2022-10-03T02:24:40;9.50;99.90
7317;DHT22;3699;51.462;6.696;2022-10-03T02:27:34;9.70;99.90
7317;DHT22;3699;51.462;6.696;2022-10-03T02:30:14;9.80;99.90
7317;DHT22;3699;51.462;6.696;2022-10-03T02:33:26;9.80;99.90
7317;DHT22;3699;51.462;6.696;2022-10-03T02:36:47;9.80;99.90
7317;DHT22;3699;51.462;6.696;2022-10-03T02:39:46;9.80;99.90
7317;DHT22;3699;51.462;6.696;2022-10-03T02:46:00;9.80;99.90
7317;DHT22;3699;51.462;6.696;2022-10-03T02:48:47;9.80;99.90
7317;DHT22;3699;51.462;6.696;2022-10-03T02:51:31;9.80;99.90
7317;DHT22;3699;51.462;6.696;2022-10-03T02:57:29;9.70;99.90
7317;DHT22;3699;51.462;6.696;2022-10-03T03:00:10;9.70;99.90
7317;DHT22;3699;51.462;6.696;2022-10-03T03:06:25;9.60;99.90
7317;DHT22;3699;51.462;6.696;2022-10-03T03:12:08;9.50;99.90
7317;DHT22;3699;51.462;6.696;2022-10-03T03:15:00;9.50;99.90
7317;DHT22;3699;51.462;6.696;2022-10-03T03:17:36;9.40;99.90
7317;DHT22;3699;51.462;6.696;2022-10-03T03:20:14;9.40;99.90
7317;DHT22;3699;51.462;6.696;2022-10-03T03:23:06;9.40;99.90
7317;DHT22;3699;51.462;6.696;2022-10-03T03:25:51;9.30;99.90
7317;DHT22;3699;51.462;6.696;2022-10-03T03:28:27;9.30;99.90
7317;DHT22;3699;51.462;6.696;2022-10-03T03:31:03;9.20;99.90
7317;DHT22;3699;51.462;6.696;2022-10-03T03:33:37;9.20;99.90
7317;DHT22;3699;51.462;6.696;2022-10-03T03:36:14;9.20;99.90
7317;DHT22;3699;51.462;6.696;2022-10-03T03:38:50;9.10;99.90
7317;DHT22;3699;51.462;6.696;2022-10-03T03:41:30;9.10;99.90
7317;DHT22;3699;51.462;6.696;2022-10-03T03:44:23;9.10;99.90
7317;DHT22;3699;51.462;6.696;2022-10-03T03:47:07;9.10;99.90
7317;DHT22;3699;51.462;6.696;2022-10-03T03:49:50;9.00;99.90
7317;DHT22;3699;51.462;6.696;2022-10-03T03:52:39;9.00;99.90
7317;DHT22;3699;51.462;6.696;2022-10-03T04:01:16;9.00;99.90
7317;DHT22;3699;51.462;6.696;2022-10-03T04:03:58;9.00;99.90
7317;DHT22;3699;51.462;6.696;2022-10-03T04:06:35;9.00;99.90
7317;DHT22;3699;51.462;6.696;2022-10-03T04:09:30;9.00;99.90
7317;DHT22;3699;51.462;6.696;2022-10-03T04:12:16;9.00;99.90
7317;DHT22;3699;51.462;6.696;2022-10-03T04:15:07;9.00;99.90
7317;DHT22;3699;51.462;6.696;2022-10-03T04:17:53;9.00;99.90
7317;DHT22;3699;51.462;6.696;2022-10-03T04:20:56;9.00;99.90
7317;DHT22;3699;51.462;6.696;2022-10-03T04:23:45;9.00;99.90
7317;DHT22;3699;51.462;6.696;2022-10-03T04:26:27;9.00;99.90
7317;DHT22;3699;51.462;6.696;2022-10-03T04:32:08;9.00;99.90
7317;DHT22;3699;51.462;6.696;2022-10-03T04:34:49;9.00;99.90
7317;DHT22;3699;51.462;6.696;2022-10-03T04:37:25;9.00;99.90
7317;DHT22;3699;51.462;6.696;2022-10-03T04:40:06;9.00;99.90
7317;DHT22;3699;51.462;6.696;2022-10-03T04:42:43;9.00;99.90
7317;DHT22;3699;51.462;6.696;2022-10-03T04:45:25;9.00;99.90
7317;DHT22;3699;51.462;6.696;2022-10-03T04:47:58;9.00;99.90
7317;DHT22;3699;51.462;6.696;2022-10-03T04:50:36;9.00;99.90
7317;DHT22;3699;51.462;6.696;2022-10-03T04:53:22;9.00;99.90
7317;DHT22;3699;51.462;6.696;2022-10-03T04:55:55;9.10;99.90
7317;DHT22;3699;51.462;6.696;2022-10-03T04:58:35;9.10;99.90
7317;DHT22;3699;51.462;6.696;2022-10-03T05:01:10;9.10;99.90
7317;DHT22;3699;51.462;6.696;2022-10-03T05:03:45;9.20;99.90
7317;DHT22;3699;51.462;6.696;2022-10-03T05:06:28;9.20;99.90
7317;DHT22;3699;51.462;6.696;2022-10-03T05:09:00;9.20;99.90
7317;DHT22;3699;51.462;6.696;2022-10-03T05:11:40;9.40;99.90
7317;DHT22;3699;51.462;6.696;2022-10-03T05:14:19;9.30;99.90
7317;DHT22;3699;51.462;6.696;2022-10-03T05:16:53;9.30;99.90
7317;DHT22;3699;51.462;6.696;2022-10-03T05:19:50;9.30;99.90
7317;DHT22;3699;51.462;6.696;2022-10-03T05:22:36;9.40;99.90
7317;DHT22;3699;51.462;6.696;2022-10-03T05:25:15;9.40;99.90
7317;DHT22;3699;51.462;6.696;2022-10-03T05:27:50;9.40;99.90
7317;DHT22;3699;51.462;6.696;2022-10-03T05:30:28;9.40;99.90
7317;DHT22;3699;51.462;6.696;2022-10-03T05:33:04;9.40;99.90
7317;DHT22;3699;51.462;6.696;2022-10-03T05:35:44;9.40;99.90
7317;DHT22;3699;51.462;6.696;2022-10-03T05:41:21;9.60;99.90
7317;DHT22;3699;51.462;6.696;2022-10-03T05:43:56;9.70;99.90
7317;DHT22;3699;51.462;6.696;2022-10-03T05:46:38;9.70;99.90
7317;DHT22;3699;51.462;6.696;2022-10-03T05:49:22;9.80;99.90
7317;DHT22;3699;51.462;6.696;2022-10-03T05:52:10;9.90;99.90
7317;DHT22;3699;51.462;6.696;2022-10-03T05:54:49;10.00;99.90
7317;DHT22;3699;51.462;6.696;2022-10-03T06:00:32;10.10;99.90
7317;DHT22;3699;51.462;6.696;2022-10-03T06:03:25;10.10;99.90
7317;DHT22;3699;51.462;6.696;2022-10-03T06:06:06;10.20;99.90
7317;DHT22;3699;51.462;6.696;2022-10-03T06:11:54;10.30;99.90
7317;DHT22;3699;51.462;6.696;2022-10-03T06:14:48;10.30;99.90
7317;DHT22;3699;51.462;6.696;2022-10-03T06:20:50;10.40;99.90
7317;DHT22;3699;51.462;6.696;2022-10-03T06:26:44;10.50;99.90
7317;DHT22;3699;51.462;6.696;2022-10-03T06:32:33;10.50;99.90
7317;DHT22;3699;51.462;6.696;2022-10-03T06:38:42;10.50;99.90
7317;DHT22;3699;51.462;6.696;2022-10-03T06:41:40;10.60;99.90
7317;DHT22;3699;51.462;6.696;2022-10-03T06:44:47;10.70;99.90
7317;DHT22;3699;51.462;6.696;2022-10-03T06:47:40;11.00;99.90
7317;DHT22;3699;51.462;6.696;2022-10-03T06:50:28;11.20;99.90
7317;DHT22;3699;51.462;6.696;2022-10-03T06:53:16;11.40;99.90
7317;DHT22;3699;51.462;6.696;2022-10-03T06:56:13;11.70;99.90
7317;DHT22;3699;51.462;6.696;2022-10-03T06:59:08;11.70;99.90
7317;DHT22;3699;51.462;6.696;2022-10-03T07:02:04;11.70;99.90
7317;DHT22;3699;51.462;6.696;2022-10-03T07:05:21;11.80;99.90
7317;DHT22;3699;51.462;6.696;2022-10-03T07:11:10;11.90;99.90
7317;DHT22;3699;51.462;6.696;2022-10-03T07:14:10;11.90;99.90
7317;DHT22;3699;51.462;6.696;2022-10-03T07:17:03;12.10;99.90
7317;DHT22;3699;51.462;6.696;2022-10-03T07:19:41;12.20;99.90
7317;DHT22;3699;51.462;6.696;2022-10-03T07:22:48;12.30;99.90
7317;DHT22;3699;51.462;6.696;2022-10-03T07:25:58;12.60;99.90
7317;DHT22;3699;51.462;6.696;2022-10-03T07:31:46;12.80;99.90
7317;DHT22;3699;51.462;6.696;2022-10-03T07:34:52;12.80;99.90
7317;DHT22;3699;51.462;6.696;2022-10-03T07:41:15;12.70;99.90
7317;DHT22;3699;51.462;6.696;2022-10-03T07:43:59;12.60;99.90
7317;DHT22;3699;51.462;6.696;2022-10-03T07:47:03;12.60;99.90
7317;DHT22;3699;51.462;6.696;2022-10-03T07:49:52;12.80;99.90
7317;DHT22;3699;51.462;6.696;2022-10-03T07:52:41;13.20;99.90
7317;DHT22;3699;51.462;6.696;2022-10-03T07:55:27;13.80;99.90
7317;DHT22;3699;51.462;6.696;2022-10-03T08:04:38;14.50;99.90
7317;DHT22;3699;51.462;6.696;2022-10-03T08:07:25;14.70;99.90
7317;DHT22;3699;51.462;6.696;2022-10-03T08:10:02;14.80;99.90
7317;DHT22;3699;51.462;6.696;2022-10-03T08:13:05;14.90;99.90
7317;DHT22;3699;51.462;6.696;2022-10-03T08:15:49;14.00;99.90
7317;DHT22;3699;51.462;6.696;2022-10-03T08:21:29;15.20;99.90
7317;DHT22;3699;51.462;6.696;2022-10-03T08:24:36;15.50;99.90
7317;DHT22;3699;51.462;6.696;2022-10-03T08:27:30;15.30;99.90
7317;DHT22;3699;51.462;6.696;2022-10-03T08:30:17;15.50;99.90
7317;DHT22;3699;51.462;6.696;2022-10-03T08:32:57;15.60;99.90
7317;DHT22;3699;51.462;6.696;2022-10-03T08:38:48;16.00;99.90
7317;DHT22;3699;51.462;6.696;2022-10-03T08:48:14;16.40;99.90
7317;DHT22;3699;51.462;6.696;2022-10-03T08:51:04;16.60;99.90
7317;DHT22;3699;51.462;6.696;2022-10-03T08:54:14;16.70;99.90
7317;DHT22;3699;51.462;6.696;2022-10-03T08:57:12;16.80;99.90
7317;DHT22;3699;51.462;6.696;2022-10-03T09:03:16;17.00;99.90
7317;DHT22;3699;51.462;6.696;2022-10-03T09:09:04;17.10;99.90
7317;DHT22;3699;51.462;6.696;2022-10-03T09:11:44;17.20;99.90
7317;DHT22;3699;51.462;6.696;2022-10-03T09:14:36;17.10;99.90
7317;DHT22;3699;51.462;6.696;2022-10-03T09:17:20;17.20;99.90
7317;DHT22;3699;51.462;6.696;2022-10-03T09:20:16;17.20;99.90
7317;DHT22;3699;51.462;6.696;2022-10-03T09:23:06;17.30;99.90
7317;DHT22;3699;51.462;6.696;2022-10-03T09:29:20;17.60;99.90
7317;DHT22;3699;51.462;6.696;2022-10-03T09:32:15;17.70;99.90
7317;DHT22;3699;51.462;6.696;2022-10-03T09:41:51;18.10;99.90
7317;DHT22;3699;51.462;6.696;2022-10-03T09:44:37;18.20;99.90
7317;DHT22;3699;51.462;6.696;2022-10-03T09:50:43;18.30;99.90
7317;DHT22;3699;51.462;6.696;2022-10-03T09:53:36;18.30;99.90
7317;DHT22;3699;51.462;6.696;2022-10-03T09:56:28;18.40;99.90
7317;DHT22;3699;51.462;6.696;2022-10-03T09:59:49;18.60;99.90
7317;DHT22;3699;51.462;6.696;2022-10-03T10:08:41;18.80;99.90
7317;DHT22;3699;51.462;6.696;2022-10-03T10:11:21;18.90;99.90
7317;DHT22;3699;51.462;6.696;2022-10-03T10:14:15;18.90;99.90
7317;DHT22;3699;51.462;6.696;2022-10-03T10:17:08;19.00;99.90
7317;DHT22;3699;51.462;6.696;2022-10-03T10:19:54;19.00;99.90
7317;DHT22;3699;51.462;6.696;2022-10-03T10:23:03;19.10;99.90
7317;DHT22;3699;51.462;6.696;2022-10-03T10:32:29;19.00;99.90
7317;DHT22;3699;51.462;6.696;2022-10-03T10:38:23;19.00;99.90
7317;DHT22;3699;51.462;6.696;2022-10-03T10:54:31;19.50;99.90
7317;DHT22;3699;51.462;6.696;2022-10-03T11:00:24;19.40;99.90
7317;DHT22;3699;51.462;6.696;2022-10-03T11:03:41;19.40;99.90
7317;DHT22;3699;51.462;6.696;2022-10-03T11:06:37;19.30;99.90
7317;DHT22;3699;51.462;6.696;2022-10-03T11:12:45;19.00;99.90
7317;DHT22;3699;51.462;6.696;2022-10-03T11:19:22;19.00;99.90
7317;DHT22;3699;51.462;6.696;2022-10-03T11:22:31;19.00;99.90
7317;DHT22;3699;51.462;6.696;2022-10-03T11:25:41;19.10;99.90
7317;DHT22;3699;51.462;6.696;2022-10-03T11:31:47;19.20;99.90
7317;DHT22;3699;51.462;6.696;2022-10-03T11:34:55;19.30;99.90
7317;DHT22;3699;51.462;6.696;2022-10-03T11:37:41;19.50;99.90
7317;DHT22;3699;51.462;6.696;2022-10-03T11:40:31;19.50;99.90
7317;DHT22;3699;51.462;6.696;2022-10-03T11:46:25;19.70;99.90
7317;DHT22;3699;51.462;6.696;2022-10-03T11:49:00;19.80;99.90
7317;DHT22;3699;51.462;6.696;2022-10-03T11:51:42;19.90;99.90
7317;DHT22;3699;51.462;6.696;2022-10-03T11:54:20;19.90;99.90
7317;DHT22;3699;51.462;6.696;2022-10-03T11:56:50;20.00;99.90
7317;DHT22;3699;51.462;6.696;2022-10-03T11:59:37;20.10;99.90
7317;DHT22;3699;51.462;6.696;2022-10-03T12:02:14;20.20;99.90
7317;DHT22;3699;51.462;6.696;2022-10-03T12:04:52;20.30;99.90
7317;DHT22;3699;51.462;6.696;2022-10-03T12:07:36;20.30;99.90
7317;DHT22;3699;51.462;6.696;2022-10-03T12:10:41;20.20;99.90
7317;DHT22;3699;51.462;6.696;2022-10-03T12:13:13;20.00;99.90
7317;DHT22;3699;51.462;6.696;2022-10-03T12:15:44;19.90;99.90
7317;DHT22;3699;51.462;6.696;2022-10-03T12:18:15;19.80;99.90
7317;DHT22;3699;51.462;6.696;2022-10-03T12:21:04;19.60;99.90
7317;DHT22;3699;51.462;6.696;2022-10-03T12:23:46;19.40;99.90
7317;DHT22;3699;51.462;6.696;2022-10-03T12:26:22;19.20;99.90
7317;DHT22;3699;51.462;6.696;2022-10-03T12:28:55;19.10;99.90
7317;DHT22;3699;51.462;6.696;2022-10-03T12:31:28;19.10;99.90
7317;DHT22;3699;51.462;6.696;2022-10-03T12:34:03;19.00;99.90
7317;DHT22;3699;51.462;6.696;2022-10-03T12:36:47;19.10;99.90
7317;DHT22;3699;51.462;6.696;2022-10-03T12:39:23;19.20;99.90
7317;DHT22;3699;51.462;6.696;2022-10-03T12:42:03;19.40;99.90
7317;DHT22;3699;51.462;6.696;2022-10-03T12:44:44;19.50;99.90
7317;DHT22;3699;51.462;6.696;2022-10-03T12:47:29;19.60;99.90
7317;DHT22;3699;51.462;6.696;2022-10-03T12:50:07;19.70;99.90
7317;DHT22;3699;51.462;6.696;2022-10-03T12:52:44;19.80;99.90
7317;DHT22;3699;51.462;6.696;2022-10-03T12:55:24;19.80;99.90
7317;DHT22;3699;51.462;6.696;2022-10-03T12:58:00;19.80;99.90
7317;DHT22;3699;51.462;6.696;2022-10-03T13:00:33;19.80;99.90
7317;DHT22;3699;51.462;6.696;2022-10-03T13:03:15;19.80;99.90
7317;DHT22;3699;51.462;6.696;2022-10-03T13:09:10;19.60;99.90
7317;DHT22;3699;51.462;6.696;2022-10-03T13:11:51;19.50;99.90
7317;DHT22;3699;51.462;6.696;2022-10-03T13:14:28;19.50;99.90
7317;DHT22;3699;51.462;6.696;2022-10-03T13:17:03;19.50;99.90
7317;DHT22;3699;51.462;6.696;2022-10-03T13:19:42;19.50;99.90
7317;DHT22;3699;51.462;6.696;2022-10-03T13:22:29;19.50;99.90
7317;DHT22;3699;51.462;6.696;2022-10-03T13:25:04;19.50;99.90
7317;DHT22;3699;51.462;6.696;2022-10-03T13:27:41;19.50;99.90
7317;DHT22;3699;51.462;6.696;2022-10-03T13:30:19;19.50;99.90
7317;DHT22;3699;51.462;6.696;2022-10-03T13:32:49;19.50;99.90
7317;DHT22;3699;51.462;6.696;2022-10-03T13:35:24;19.40;99.90
7317;DHT22;3699;51.462;6.696;2022-10-03T13:41:11;19.30;99.90
7317;DHT22;3699;51.462;6.696;2022-10-03T13:43:46;19.10;99.90
7317;DHT22;3699;51.462;6.696;2022-10-03T13:46:17;19.00;99.90
7317;DHT22;3699;51.462;6.696;2022-10-03T13:48:50;18.90;99.90
7317;DHT22;3699;51.462;6.696;2022-10-03T13:51:26;18.90;99.90
7317;DHT22;3699;51.462;6.696;2022-10-03T13:54:02;18.80;99.90
7317;DHT22;3699;51.462;6.696;2022-10-03T13:56:40;18.80;99.90
7317;DHT22;3699;51.462;6.696;2022-10-03T13:59:32;18.70;99.90
7317;DHT22;3699;51.462;6.696;2022-10-03T14:02:14;18.70;99.90
7317;DHT22;3699;51.462;6.696;2022-10-03T14:05:03;18.70;99.90
7317;DHT22;3699;51.462;6.696;2022-10-03T14:07:42;18.80;99.90
7317;DHT22;3699;51.462;6.696;2022-10-03T14:10:20;18.90;99.90
7317;DHT22;3699;51.462;6.696;2022-10-03T14:13:05;18.90;99.90
7317;DHT22;3699;51.462;6.696;2022-10-03T14:15:45;19.00;99.90
7317;DHT22;3699;51.462;6.696;2022-10-03T14:18:29;19.10;99.90
7317;DHT22;3699;51.462;6.696;2022-10-03T14:21:28;19.10;99.90
7317;DHT22;3699;51.462;6.696;2022-10-03T14:24:08;19.10;99.90
7317;DHT22;3699;51.462;6.696;2022-10-03T14:26:40;19.10;99.90
7317;DHT22;3699;51.462;6.696;2022-10-03T14:29:18;19.00;99.90
7317;DHT22;3699;51.462;6.696;2022-10-03T14:31:52;19.00;99.90
7317;DHT22;3699;51.462;6.696;2022-10-03T14:34:34;18.90;99.90
7317;DHT22;3699;51.462;6.696;2022-10-03T14:37:12;18.90;99.90
7317;DHT22;3699;51.462;6.696;2022-10-03T14:39:47;18.80;99.90
7317;DHT22;3699;51.462;6.696;2022-10-03T14:42:33;18.80;99.90
7317;DHT22;3699;51.462;6.696;2022-10-03T14:45:05;18.80;99.90
7317;DHT22;3699;51.462;6.696;2022-10-03T14:47:34;18.80;99.90
7317;DHT22;3699;51.462;6.696;2022-10-03T14:50:02;18.80;99.90
7317;DHT22;3699;51.462;6.696;2022-10-03T14:52:33;18.70;99.90
7317;DHT22;3699;51.462;6.696;2022-10-03T14:55:10;18.70;99.90
7317;DHT22;3699;51.462;6.696;2022-10-03T14:57:43;18.60;99.90
7317;DHT22;3699;51.462;6.696;2022-10-03T15:00:23;18.50;99.90
7317;DHT22;3699;51.462;6.696;2022-10-03T15:02:50;18.50;99.90
7317;DHT22;3699;51.462;6.696;2022-10-03T15:05:19;18.40;99.90
7317;DHT22;3699;51.462;6.696;2022-10-03T15:07:48;18.40;99.90
7317;DHT22;3699;51.462;6.696;2022-10-03T15:10:18;18.40;99.90
7317;DHT22;3699;51.462;6.696;2022-10-03T15:12:49;18.40;99.90
7317;DHT22;3699;51.462;6.696;2022-10-03T15:15:23;18.30;99.90
7317;DHT22;3699;51.462;6.696;2022-10-03T15:17:53;18.30;99.90
7317;DHT22;3699;51.462;6.696;2022-10-03T15:20:24;18.30;99.90
7317;DHT22;3699;51.462;6.696;2022-10-03T15:22:56;18.20;99.90
7317;DHT22;3699;51.462;6.696;2022-10-03T15:25:26;18.20;99.90
7317;DHT22;3699;51.462;6.696;2022-10-03T15:27:56;18.20;99.90
7317;DHT22;3699;51.462;6.696;2022-10-03T15:30:28;18.30;99.90
7317;DHT22;3699;51.462;6.696;2022-10-03T15:33:04;18.20;99.90
7317;DHT22;3699;51.462;6.696;2022-10-03T15:35:34;18.20;99.90
7317;DHT22;3699;51.462;6.696;2022-10-03T15:38:10;18.20;99.90
7317;DHT22;3699;51.462;6.696;2022-10-03T15:40:41;18.20;99.90
7317;DHT22;3699;51.462;6.696;2022-10-03T15:43:25;18.10;99.90
7317;DHT22;3699;51.462;6.696;2022-10-03T15:45:55;18.10;99.90
7317;DHT22;3699;51.462;6.696;2022-10-03T15:48:24;18.00;99.90
7317;DHT22;3699;51.462;6.696;2022-10-03T15:50:54;18.00;99.90
7317;DHT22;3699;51.462;6.696;2022-10-03T15:53:24;17.90;99.90
7317;DHT22;3699;51.462;6.696;2022-10-03T15:55:58;17.90;99.90
7317;DHT22;3699;51.462;6.696;2022-10-03T15:58:28;17.80;99.90
7317;DHT22;3699;51.462;6.696;2022-10-03T16:01:04;17.80;99.90
7317;DHT22;3699;51.462;6.696;2022-10-03T16:03:36;17.70;99.90
7317;DHT22;3699;51.462;6.696;2022-10-03T16:06:09;17.70;99.90
7317;DHT22;3699;51.462;6.696;2022-10-03T16:08:45;17.70;99.90
7317;DHT22;3699;51.462;6.696;2022-10-03T16:11:20;17.70;99.90
7317;DHT22;3699;51.462;6.696;2022-10-03T16:13:58;17.60;99.90
7317;DHT22;3699;51.462;6.696;2022-10-03T16:16:35;17.60;99.90
7317;DHT22;3699;51.462;6.696;2022-10-03T16:19:21;17.50;99.90
7317;DHT22;3699;51.462;6.696;2022-10-03T16:21:53;17.40;99.90
7317;DHT22;3699;51.462;6.696;2022-10-03T16:24:29;17.40;99.90
7317;DHT22;3699;51.462;6.696;2022-10-03T16:27:05;17.40;99.90
7317;DHT22;3699;51.462;6.696;2022-10-03T16:29:35;17.30;99.90
7317;DHT22;3699;51.462;6.696;2022-10-03T16:32:06;17.30;99.90
7317;DHT22;3699;51.462;6.696;2022-10-03T16:34:35;17.30;99.90
7317;DHT22;3699;51.462;6.696;2022-10-03T16:37:15;17.20;99.90
7317;DHT22;3699;51.462;6.696;2022-10-03T16:39:46;17.20;99.90
7317;DHT22;3699;51.462;6.696;2022-10-03T16:42:19;17.10;99.90
7317;DHT22;3699;51.462;6.696;2022-10-03T16:44:51;17.00;99.90
7317;DHT22;3699;51.462;6.696;2022-10-03T16:47:28;16.90;99.90
7317;DHT22;3699;51.462;6.696;2022-10-03T16:49:57;16.80;99.90
7317;DHT22;3699;51.462;6.696;2022-10-03T16:52:44;16.70;99.90
7317;DHT22;3699;51.462;6.696;2022-10-03T16:55:15;16.60;99.90
7317;DHT22;3699;51.462;6.696;2022-10-03T16:57:44;16.50;99.90
7317;DHT22;3699;51.462;6.696;2022-10-03T17:00:15;16.40;99.90
7317;DHT22;3699;51.462;6.696;2022-10-03T17:02:44;16.30;99.90
7317;DHT22;3699;51.462;6.696;2022-10-03T17:05:13;16.20;99.90
7317;DHT22;3699;51.462;6.696;2022-10-03T17:07:42;16.10;99.90
7317;DHT22;3699;51.462;6.696;2022-10-03T17:10:32;15.90;99.90
7317;DHT22;3699;51.462;6.696;2022-10-03T17:13:04;15.80;99.90
7317;DHT22;3699;51.462;6.696;2022-10-03T17:15:40;15.70;99.90
7317;DHT22;3699;51.462;6.696;2022-10-03T17:18:17;15.60;99.90
7317;DHT22;3699;51.462;6.696;2022-10-03T17:20:47;15.50;99.90
7317;DHT22;3699;51.462;6.696;2022-10-03T17:23:25;15.30;99.90
7317;DHT22;3699;51.462;6.696;2022-10-03T17:25:59;15.20;99.90
7317;DHT22;3699;51.462;6.696;2022-10-03T17:28:33;15.10;99.90
7317;DHT22;3699;51.462;6.696;2022-10-03T17:31:04;14.90;99.90
7317;DHT22;3699;51.462;6.696;2022-10-03T17:33:39;14.90;99.90
7317;DHT22;3699;51.462;6.696;2022-10-03T17:39:35;14.60;99.90
7317;DHT22;3699;51.462;6.696;2022-10-03T17:42:13;14.40;99.90
7317;DHT22;3699;51.462;6.696;2022-10-03T17:44:55;14.30;99.90
7317;DHT22;3699;51.462;6.696;2022-10-03T17:47:30;14.20;99.90
7317;DHT22;3699;51.462;6.696;2022-10-03T17:50:04;14.10;99.90
7317;DHT22;3699;51.462;6.696;2022-10-03T17:52:33;14.00;99.90
7317;DHT22;3699;51.462;6.696;2022-10-03T17:55:06;13.90;99.90
7317;DHT22;3699;51.462;6.696;2022-10-03T17:57:35;13.80;99.90
7317;DHT22;3699;51.462;6.696;2022-10-03T18:00:14;13.80;99.90
7317;DHT22;3699;51.462;6.696;2022-10-03T18:02:49;13.70;99.90
7317;DHT22;3699;51.462;6.696;2022-10-03T18:05:19;13.70;99.90
7317;DHT22;3699;51.462;6.696;2022-10-03T18:07:48;13.60;99.90
7317;DHT22;3699;51.462;6.696;2022-10-03T18:10:20;13.60;99.90
7317;DHT22;3699;51.462;6.696;2022-10-03T18:12:49;13.50;99.90
7317;DHT22;3699;51.462;6.696;2022-10-03T18:15:51;13.50;99.90
7317;DHT22;3699;51.462;6.696;2022-10-03T18:18:44;13.50;99.90
7317;DHT22;3699;51.462;6.696;2022-10-03T18:21:17;13.40;99.90
7317;DHT22;3699;51.462;6.696;2022-10-03T18:24:08;13.30;99.90
7317;DHT22;3699;51.462;6.696;2022-10-03T18:26:39;13.30;99.90
7317;DHT22;3699;51.462;6.696;2022-10-03T18:29:20;13.30;99.90
7317;DHT22;3699;51.462;6.696;2022-10-03T18:31:53;13.20;99.90
7317;DHT22;3699;51.462;6.696;2022-10-03T18:34:25;13.20;99.90
7317;DHT22;3699;51.462;6.696;2022-10-03T18:36:55;13.20;99.90
7317;DHT22;3699;51.462;6.696;2022-10-03T18:39:29;13.10;99.90
7317;DHT22;3699;51.462;6.696;2022-10-03T18:41:57;13.10;99.90
7317;DHT22;3699;51.462;6.696;2022-10-03T18:44:27;13.10;99.90
7317;DHT22;3699;51.462;6.696;2022-10-03T18:47:06;13.00;99.90
7317;DHT22;3699;51.462;6.696;2022-10-03T18:49:41;13.10;99.90
7317;DHT22;3699;51.462;6.696;2022-10-03T18:52:16;13.10;99.90
7317;DHT22;3699;51.462;6.696;2022-10-03T18:54:50;13.00;99.90
7317;DHT22;3699;51.462;6.696;2022-10-03T18:57:23;13.00;99.90
7317;DHT22;3699;51.462;6.696;2022-10-03T18:59:56;13.00;99.90
7317;DHT22;3699;51.462;6.696;2022-10-03T19:02:31;13.00;99.90
7317;DHT22;3699;51.462;6.696;2022-10-03T19:05:06;13.00;99.90
7317;DHT22;3699;51.462;6.696;2022-10-03T19:07:43;13.00;99.90
7317;DHT22;3699;51.462;6.696;2022-10-03T19:10:25;13.00;99.90
7317;DHT22;3699;51.462;6.696;2022-10-03T19:12:59;13.00;99.90
7317;DHT22;3699;51.462;6.696;2022-10-03T19:15:36;13.00;99.90
7317;DHT22;3699;51.462;6.696;2022-10-03T19:18:17;12.90;99.90
7317;DHT22;3699;51.462;6.696;2022-10-03T19:20:48;12.90;99.90
7317;DHT22;3699;51.462;6.696;2022-10-03T19:23:20;13.00;99.90
7317;DHT22;3699;51.462;6.696;2022-10-03T19:25:52;12.90;99.90
7317;DHT22;3699;51.462;6.696;2022-10-03T19:28:25;12.90;99.90
7317;DHT22;3699;51.462;6.696;2022-10-03T19:30:59;12.90;99.90
7317;DHT22;3699;51.462;6.696;2022-10-03T19:33:29;12.90;99.90
7317;DHT22;3699;51.462;6.696;2022-10-03T19:36:02;12.90;99.90
7317;DHT22;3699;51.462;6.696;2022-10-03T19:38:36;12.90;99.90
7317;DHT22;3699;51.462;6.696;2022-10-03T19:41:06;12.80;99.90
7317;DHT22;3699;51.462;6.696;2022-10-03T19:43:40;12.80;99.90
7317;DHT22;3699;51.462;6.696;2022-10-03T19:46:27;12.80;99.90
7317;DHT22;3699;51.462;6.696;2022-10-03T19:49:16;12.70;99.90
7317;DHT22;3699;51.462;6.696;2022-10-03T19:51:46;12.60;99.90
7317;DHT22;3699;51.462;6.696;2022-10-03T19:54:27;12.60;99.90
7317;DHT22;3699;51.462;6.696;2022-10-03T19:56:56;12.50;99.90
7317;DHT22;3699;51.462;6.696;2022-10-03T19:59:36;12.50;99.90
7317;DHT22;3699;51.462;6.696;2022-10-03T20:02:04;12.40;99.90
7317;DHT22;3699;51.462;6.696;2022-10-03T20:04:33;12.30;99.90